Time;durP1;ratioP1;P1;durP2;ratioP2;P2;SDS_P1;SDS_P2;PMS_P1;PMS_P2;Temp;Humidity;BMP_temperature;BMP_pressure;BME280_temperature;BME280_humidity;BME280_pressure;Samples;Min_cycle;Max_cycle;Signal;HPM_P1;HPM_P2
2022/08/27 00:02:13;;;;;;;;;2.00;2.00;32.20;99.90;;;;;;5029894;28;8854;-66
2022/08/27 00:04:44;;;;;;;;;2.80;2.80;32.20;99.90;;;;;;5037447;28;8879;-68
2022/08/27 00:07:17;;;;;;;;;6.00;5.00;32.30;99.90;;;;;;5027593;28;8887;-64
2022/08/27 00:09:49;;;;;;;;;3.00;3.00;32.50;99.90;;;;;;5029556;28;8855;-63
2022/08/27 00:12:20;;;;;;;;;6.00;5.00;32.50;99.90;;;;;;5028579;28;8855;-63
2022/08/27 00:14:52;;;;;;;;;5.20;5.20;32.50;99.90;;;;;;5017111;28;8872;-70
2022/08/27 00:17:22;;;;;;;;;5.00;5.00;32.30;99.90;;;;;;5030626;28;8870;-68
2022/08/27 00:19:53;;;;;;;;;4.40;4.40;32.30;99.90;;;;;;5035570;28;8890;-68
2022/08/27 00:22:24;;;;;;;;;5.20;5.20;32.20;99.90;;;;;;5016607;28;8866;-70
2022/08/27 00:24:55;;;;;;;;;5.00;5.00;32.40;99.90;;;;;;5025962;28;8905;-69
2022/08/27 00:27:26;;;;;;;;;4.40;4.40;32.30;99.90;;;;;;5047453;28;8901;-62
2022/08/27 00:29:56;;;;;;;;;6.00;6.00;32.30;99.90;;;;;;5010820;28;8909;-68
2022/08/27 00:32:26;;;;;;;;;5.00;5.00;32.30;99.90;;;;;;5012477;28;8882;-66
2022/08/27 00:34:59;;;;;;;;;4.60;4.60;32.40;99.90;;;;;;5030489;28;8858;-65
2022/08/27 00:37:37;;;;;;;;;3.20;3.20;32.20;99.90;;;;;;5015855;28;8863;-65
2022/08/27 00:40:15;;;;;;;;;6.40;5.40;32.00;99.90;;;;;;5027171;28;8840;-66
2022/08/27 00:42:49;;;;;;;;;4.00;3.80;31.80;99.90;;;;;;5016808;28;8873;-66
2022/08/27 00:45:21;;;;;;;;;5.80;4.40;31.80;99.90;;;;;;5024989;28;8847;-65
2022/08/27 00:47:55;;;;;;;;;5.20;5.20;31.80;99.90;;;;;;5021829;28;8852;-66
2022/08/27 00:50:35;;;;;;;;;6.20;6.20;31.70;99.90;;;;;;5015331;28;8864;-64
2022/08/27 00:53:17;;;;;;;;;6.00;6.00;31.60;99.90;;;;;;5008170;28;8838;-65
2022/08/27 00:55:56;;;;;;;;;5.20;5.20;31.50;99.90;;;;;;5037205;28;8840;-64
2022/08/27 00:58:29;;;;;;;;;4.00;4.00;31.50;99.90;;;;;;5031976;28;8894;-64
2022/08/27 01:01:05;;;;;;;;;4.20;4.20;31.40;99.90;;;;;;5030178;28;8840;-65
2022/08/27 01:03:38;;;;;;;;;5.80;5.80;31.30;99.90;;;;;;5027946;28;8870;-64
2022/08/27 01:06:12;;;;;;;;;5.20;5.20;31.30;99.90;;;;;;5032306;28;8860;-64
2022/08/27 01:08:57;;;;;;;;;6.60;6.60;31.30;99.90;;;;;;5029596;28;8857;-65
2022/08/27 01:11:27;;;;;;;;;5.00;5.00;31.20;99.90;;;;;;5038023;28;8824;-67
2022/08/27 01:13:58;;;;;;;;;6.00;6.00;31.10;99.90;;;;;;5012140;28;8886;-66
2022/08/27 01:16:38;;;;;;;;;4.00;4.00;31.00;99.90;;;;;;5031711;28;8851;-67
2022/08/27 01:19:40;;;;;;;;;4.00;4.00;31.00;99.90;;;;;;5032282;28;8846;-64
2022/08/27 01:22:18;;;;;;;;;5.40;5.40;30.90;99.90;;;;;;5011026;28;8839;-64
2022/08/27 01:24:57;;;;;;;;;6.20;6.20;30.90;99.90;;;;;;5033056;28;8908;-63
2022/08/27 01:27:33;;;;;;;;;7.40;7.00;30.80;99.90;;;;;;5028679;28;8847;-63
2022/08/27 01:30:04;;;;;;;;;5.80;5.80;30.80;99.90;;;;;;5017942;28;8874;-65
2022/08/27 01:32:37;;;;;;;;;6.60;6.60;30.80;99.90;;;;;;5030872;28;8840;-64
2022/08/27 01:35:11;;;;;;;;;4.40;3.00;30.80;99.90;;;;;;5013267;28;8826;-66
2022/08/27 01:37:48;;;;;;;;;6.60;6.60;30.70;99.90;;;;;;5012228;28;8872;-66
2022/08/27 01:40:23;;;;;;;;;5.60;5.60;30.70;99.90;;;;;;5042858;28;8845;-67
2022/08/27 01:42:58;;;;;;;;;6.00;5.00;30.60;99.90;;;;;;5038903;28;8916;-68
2022/08/27 01:45:34;;;;;;;;;6.60;6.60;30.60;99.90;;;;;;5028386;28;9453;-67
2022/08/27 01:48:06;;;;;;;;;6.00;6.00;30.60;99.90;;;;;;5019163;28;8898;-66
2022/08/27 01:50:54;;;;;;;;;5.00;5.00;30.60;99.90;;;;;;5082746;27;13450;-67
2022/08/27 01:53:26;;;;;;;;;7.00;7.00;30.60;99.90;;;;;;5066643;28;8860;-65
2022/08/27 01:55:58;;;;;;;;;5.20;5.20;30.50;99.90;;;;;;5096915;27;8871;-65
2022/08/27 01:58:32;;;;;;;;;5.00;5.00;30.50;99.90;;;;;;5099496;27;8832;-67
2022/08/27 02:01:07;;;;;;;;;5.00;5.00;30.40;99.90;;;;;;5062153;28;8862;-67
2022/08/27 02:03:40;;;;;;;;;6.00;6.00;30.40;99.90;;;;;;5068881;28;8824;-69
2022/08/27 02:06:12;;;;;;;;;5.40;5.40;30.20;99.90;;;;;;5070243;28;8860;-63
2022/08/27 02:08:47;;;;;;;;;6.20;6.20;30.20;99.90;;;;;;5058871;28;9775;-63
2022/08/27 02:11:19;;;;;;;;;6.00;6.00;30.00;99.90;;;;;;5067600;28;8847;-66
2022/08/27 02:13:50;;;;;;;;;6.20;6.20;30.00;99.90;;;;;;5070105;28;8883;-66
2022/08/27 02:16:22;;;;;;;;;6.20;6.20;30.00;99.90;;;;;;5066126;28;9694;-63
2022/08/27 02:18:53;;;;;;;;;6.00;6.00;29.90;99.90;;;;;;5070800;28;9806;-63
2022/08/27 02:21:24;;;;;;;;;5.00;5.00;29.90;99.90;;;;;;5064861;28;8829;-61
2022/08/27 02:23:56;;;;;;;;;7.00;7.00;29.80;99.90;;;;;;5072781;28;8832;-62
2022/08/27 02:26:27;;;;;;;;;6.00;6.00;29.80;99.90;;;;;;5064396;28;8848;-67
2022/08/27 02:28:59;;;;;;;;;7.60;5.20;29.80;99.90;;;;;;5098517;27;8886;-66
2022/08/27 02:31:33;;;;;;;;;5.60;5.60;29.70;99.90;;;;;;5068464;28;8863;-62
2022/08/27 02:34:04;;;;;;;;;6.40;6.40;29.70;99.90;;;;;;5070993;28;8843;-62
2022/08/27 02:36:45;;;;;;;;;3.80;3.00;29.70;99.90;;;;;;5065293;28;8863;-68
2022/08/27 02:39:19;;;;;;;;;4.60;4.60;29.60;99.90;;;;;;5067440;28;8995;-65
2022/08/27 02:41:55;;;;;;;;;6.00;6.00;29.60;99.90;;;;;;5072291;28;8808;-63
2022/08/27 02:44:26;;;;;;;;;6.20;6.20;29.50;99.90;;;;;;5069315;28;8860;-63
2022/08/27 02:47:01;;;;;;;;;4.60;4.60;29.50;99.90;;;;;;5067764;28;8839;-65
2022/08/27 02:49:35;;;;;;;;;5.60;5.00;29.40;99.90;;;;;;5075780;28;10013;-66
2022/08/27 02:52:06;;;;;;;;;5.80;5.80;29.40;99.90;;;;;;5073183;28;8880;-62
2022/08/27 02:54:39;;;;;;;;;6.00;6.00;29.40;99.90;;;;;;5086465;28;8852;-63
2022/08/27 02:57:11;;;;;;;;;6.00;6.00;29.40;99.90;;;;;;5064194;28;8854;-67
2022/08/27 02:59:41;;;;;;;;;6.00;6.00;29.30;99.90;;;;;;5101819;27;8852;-66
2022/08/27 03:02:13;;;;;;;;;5.00;5.00;29.30;99.90;;;;;;5058513;28;9037;-66
2022/08/27 03:04:45;;;;;;;;;6.00;6.00;29.30;99.90;;;;;;5059157;28;8856;-66
2022/08/27 03:07:25;;;;;;;;;5.00;5.00;29.30;99.90;;;;;;5052096;28;8855;-66
2022/08/27 03:09:57;;;;;;;;;5.20;5.20;29.30;99.90;;;;;;5040190;28;8897;-65
2022/08/27 03:12:29;;;;;;;;;5.80;5.80;29.20;99.90;;;;;;5057001;28;8867;-66
2022/08/27 03:15:12;;;;;;;;;5.80;5.80;29.20;99.90;;;;;;5059342;28;8844;-62
2022/08/27 03:20:32;;;;;;;;;4.40;4.40;29.20;99.90;;;;;;5049432;28;8824;-67
2022/08/27 03:23:02;;;;;;;;;6.80;6.80;29.10;99.90;;;;;;5055982;28;8893;-66
2022/08/27 03:25:36;;;;;;;;;5.60;5.60;29.00;99.90;;;;;;5057173;28;8864;-66
2022/08/27 03:28:14;;;;;;;;;5.40;5.40;29.00;99.90;;;;;;5060922;28;8871;-65
2022/08/27 03:30:57;;;;;;;;;6.00;6.00;29.00;99.90;;;;;;5055548;28;8844;-62
2022/08/27 03:33:36;;;;;;;;;6.00;6.00;29.00;99.90;;;;;;5048942;28;9589;-63
2022/08/27 03:36:07;;;;;;;;;3.40;3.40;28.90;99.90;;;;;;5062339;28;8853;-62
2022/08/27 03:38:39;;;;;;;;;5.40;5.40;28.90;99.90;;;;;;5045271;28;8873;-63
2022/08/27 03:41:10;;;;;;;;;5.20;5.20;28.90;99.90;;;;;;5064209;28;8831;-63
2022/08/27 03:43:42;;;;;;;;;6.60;6.60;28.90;99.90;;;;;;5054511;28;8851;-62
2022/08/27 03:46:19;;;;;;;;;5.80;5.80;28.90;99.90;;;;;;5053122;28;8895;-64
2022/08/27 03:48:53;;;;;;;;;7.40;7.40;28.90;99.90;;;;;;5055568;27;8847;-62
2022/08/27 03:51:26;;;;;;;;;6.60;6.60;28.70;99.90;;;;;;5052796;28;8915;-66
2022/08/27 03:53:59;;;;;;;;;5.60;5.60;28.60;99.90;;;;;;5044903;28;8843;-66
2022/08/27 03:56:38;;;;;;;;;6.40;6.40;28.60;99.90;;;;;;5054175;28;8858;-69
2022/08/27 03:59:08;;;;;;;;;6.20;6.20;28.60;99.90;;;;;;5052297;28;9708;-68
2022/08/27 04:01:39;;;;;;;;;7.00;7.00;28.50;99.90;;;;;;5047902;28;8881;-63
2022/08/27 04:04:09;;;;;;;;;6.00;6.00;28.50;99.90;;;;;;5086027;27;8868;-66
2022/08/27 04:06:41;;;;;;;;;5.40;5.40;28.50;99.90;;;;;;5054247;28;8832;-64
2022/08/27 04:09:11;;;;;;;;;8.00;7.00;28.40;99.90;;;;;;5054316;28;8830;-64
2022/08/27 04:11:42;;;;;;;;;5.60;5.60;28.30;99.90;;;;;;5056985;28;8915;-69
2022/08/27 04:14:14;;;;;;;;;6.80;6.80;28.40;99.90;;;;;;5053500;28;8850;-69
2022/08/27 04:16:57;;;;;;;;;7.00;7.00;28.30;99.90;;;;;;5054571;28;8878;-68
2022/08/27 04:19:29;;;;;;;;;3.80;3.80;28.40;99.90;;;;;;5053501;28;8856;-68
2022/08/27 04:22:04;;;;;;;;;5.60;5.60;28.30;99.90;;;;;;5067315;28;8859;-63
2022/08/27 04:24:37;;;;;;;;;6.20;6.20;28.30;99.90;;;;;;5054739;28;9058;-64
2022/08/27 04:27:10;;;;;;;;;6.00;6.00;28.20;99.90;;;;;;5051574;28;9527;-69
2022/08/27 04:29:43;;;;;;;;;7.00;7.00;28.20;99.90;;;;;;5048178;28;8840;-64
2022/08/27 04:32:18;;;;;;;;;5.80;5.80;28.30;99.90;;;;;;5047283;28;8848;-62
2022/08/27 04:34:53;;;;;;;;;5.00;5.00;28.40;99.90;;;;;;5049283;28;8995;-63
2022/08/27 04:37:23;;;;;;;;;6.00;6.00;28.30;99.90;;;;;;5050068;28;8832;-63
2022/08/27 04:39:55;;;;;;;;;6.80;6.80;28.30;99.90;;;;;;5047255;28;8844;-63
2022/08/27 04:42:26;;;;;;;;;6.00;6.00;28.30;99.90;;;;;;5051879;28;8861;-61
2022/08/27 04:44:56;;;;;;;;;6.20;6.20;28.30;99.90;;;;;;5050366;28;8867;-61
2022/08/27 04:47:27;;;;;;;;;6.00;6.00;28.30;99.90;;;;;;5076103;28;8831;-63
2022/08/27 04:49:58;;;;;;;;;5.60;5.60;28.20;99.90;;;;;;5056218;28;8894;-63
2022/08/27 04:52:35;;;;;;;;;3.60;3.60;28.20;99.90;;;;;;5049294;28;8912;-64
2022/08/27 04:55:12;;;;;;;;;6.20;6.20;28.20;99.90;;;;;;5065176;28;9572;-64
2022/08/27 04:57:43;;;;;;;;;5.40;5.40;28.20;99.90;;;;;;5075199;28;8860;-64
2022/08/27 05:00:14;;;;;;;;;5.80;5.80;28.20;99.90;;;;;;5046100;28;8871;-70
2022/08/27 05:02:45;;;;;;;;;3.20;3.20;28.10;99.90;;;;;;5051216;28;9624;-68
2022/08/27 05:05:17;;;;;;;;;5.00;5.00;28.10;99.90;;;;;;5054324;28;9539;-63
2022/08/27 05:07:49;;;;;;;;;5.60;5.60;28.10;99.90;;;;;;5046050;28;8891;-62
2022/08/27 05:10:21;;;;;;;;;6.20;6.20;28.10;99.90;;;;;;5047203;28;8904;-66
2022/08/27 05:12:56;;;;;;;;;5.20;5.20;28.00;99.90;;;;;;5074122;27;9985;-61
2022/08/27 05:15:31;;;;;;;;;5.00;5.00;28.00;99.90;;;;;;5050423;28;8852;-63
2022/08/27 05:18:12;;;;;;;;;5.80;5.80;27.90;99.90;;;;;;5060233;28;8883;-63
2022/08/27 05:20:48;;;;;;;;;7.00;7.00;27.90;99.90;;;;;;5046785;28;8925;-65
2022/08/27 05:23:19;;;;;;;;;5.20;5.20;27.90;99.90;;;;;;5048678;28;10756;-66
2022/08/27 05:25:52;;;;;;;;;6.20;6.20;28.00;99.90;;;;;;5078701;27;8853;-66
2022/08/27 05:28:26;;;;;;;;;5.40;5.40;27.90;99.90;;;;;;5048838;28;8841;-65
2022/08/27 05:31:07;;;;;;;;;6.40;6.40;28.00;99.90;;;;;;5050552;28;8852;-62
2022/08/27 05:33:39;;;;;;;;;6.00;6.00;28.00;99.90;;;;;;5048782;28;8922;-62
2022/08/27 05:36:19;;;;;;;;;7.60;7.60;27.90;99.90;;;;;;5080173;27;8855;-62
2022/08/27 05:38:50;;;;;;;;;6.60;6.60;27.90;99.90;;;;;;5047063;28;8874;-63
2022/08/27 05:41:31;;;;;;;;;8.00;8.00;27.80;99.90;;;;;;5052170;28;8871;-62
2022/08/27 05:44:08;;;;;;;;;6.00;6.00;27.90;99.90;;;;;;5044654;28;8852;-64
2022/08/27 05:46:59;;;;;;;;;5.80;5.40;27.90;99.90;;;;;;5048948;28;8851;-61
2022/08/27 05:49:31;;;;;;;;;6.00;6.00;27.90;99.90;;;;;;5051278;28;8890;-62
2022/08/27 05:52:02;;;;;;;;;5.00;5.00;27.80;99.90;;;;;;5050509;28;8887;-67
2022/08/27 05:54:33;;;;;;;;;5.20;5.20;27.80;99.90;;;;;;5064838;28;8844;-65
2022/08/27 05:57:07;;;;;;;;;5.00;5.00;27.80;99.90;;;;;;5046388;28;8833;-65
2022/08/27 06:02:28;;;;;;;;;6.00;6.00;27.70;99.90;;;;;;5046865;28;8860;-62
2022/08/27 06:05:07;;;;;;;;;6.00;6.00;27.70;99.90;;;;;;5080920;28;8872;-65
2022/08/27 06:07:37;;;;;;;;;5.40;5.40;27.80;99.90;;;;;;5070079;28;8860;-65
2022/08/27 06:10:07;;;;;;;;;4.40;4.40;27.70;99.90;;;;;;5064208;28;9570;-62
2022/08/27 06:12:40;;;;;;;;;5.80;5.80;27.70;99.90;;;;;;5049405;28;8917;-63
2022/08/27 06:15:13;;;;;;;;;5.60;5.60;27.70;99.90;;;;;;5046417;28;9834;-62
2022/08/27 06:17:44;;;;;;;;;4.40;4.40;27.60;99.90;;;;;;5051627;28;8842;-63
2022/08/27 06:20:19;;;;;;;;;6.00;6.00;27.50;99.90;;;;;;5050811;28;8825;-62
2022/08/27 06:22:52;;;;;;;;;5.00;5.00;27.50;99.90;;;;;;5046986;28;8866;-61
2022/08/27 06:25:22;;;;;;;;;4.40;4.20;27.40;99.90;;;;;;5053691;28;8858;-62
2022/08/27 06:27:53;;;;;;;;;5.40;5.40;27.40;99.90;;;;;;5052113;28;9566;-61
2022/08/27 06:30:28;;;;;;;;;4.80;4.80;27.30;99.90;;;;;;5056218;28;8850;-65
2022/08/27 06:33:00;;;;;;;;;5.20;5.20;27.30;99.90;;;;;;5053386;28;8897;-66
2022/08/27 06:35:39;;;;;;;;;5.00;5.00;27.30;99.90;;;;;;5051383;28;8852;-62
2022/08/27 06:38:12;;;;;;;;;6.00;6.00;27.20;99.90;;;;;;5064005;28;8836;-62
2022/08/27 06:40:45;;;;;;;;;5.40;5.40;27.20;99.90;;;;;;5053615;28;9031;-65
2022/08/27 06:43:15;;;;;;;;;5.00;5.00;27.20;99.90;;;;;;5051912;28;8828;-66
2022/08/27 06:45:52;;;;;;;;;6.60;6.60;27.20;99.90;;;;;;5083336;27;9657;-66
2022/08/27 06:48:23;;;;;;;;;5.80;5.80;27.20;99.90;;;;;;5054200;28;8860;-66
2022/08/27 06:51:07;;;;;;;;;4.00;4.00;27.20;99.90;;;;;;5046613;28;8858;-66
2022/08/27 06:53:38;;;;;;;;;5.00;5.00;27.10;99.90;;;;;;5079264;27;8879;-66
2022/08/27 06:56:12;;;;;;;;;7.00;7.00;27.10;99.90;;;;;;5050029;28;8868;-62
2022/08/27 06:58:42;;;;;;;;;4.20;4.20;27.00;99.90;;;;;;5053497;28;8834;-62
2022/08/27 07:01:23;;;;;;;;;5.60;5.60;26.90;99.90;;;;;;5049744;28;8885;-65
2022/08/27 07:03:57;;;;;;;;;5.00;5.00;26.90;99.90;;;;;;5052131;28;8839;-66
2022/08/27 07:06:35;;;;;;;;;5.00;5.00;26.90;99.90;;;;;;5058673;28;8852;-66
2022/08/27 07:09:08;;;;;;;;;6.60;6.00;26.70;99.90;;;;;;5052799;28;8851;-67
2022/08/27 07:11:42;;;;;;;;;4.60;4.60;26.80;99.90;;;;;;5057131;28;8871;-61
2022/08/27 07:14:13;;;;;;;;;7.00;7.00;26.70;99.90;;;;;;5056040;28;8844;-62
2022/08/27 07:16:44;;;;;;;;;5.60;5.60;26.70;99.90;;;;;;5047908;28;9592;-65
2022/08/27 07:19:16;;;;;;;;;8.20;6.60;26.70;99.90;;;;;;5050203;28;8945;-66
2022/08/27 07:21:49;;;;;;;;;7.00;7.00;26.80;99.90;;;;;;5058026;28;8850;-61
2022/08/27 07:24:23;;;;;;;;;4.80;4.80;26.70;99.90;;;;;;5052539;28;8815;-62
2022/08/27 07:26:57;;;;;;;;;6.00;6.00;26.80;99.90;;;;;;5056852;28;8846;-61
2022/08/27 07:29:27;;;;;;;;;1.20;1.20;26.70;99.90;;;;;;5089108;27;8874;-62
2022/08/27 07:32:00;;;;;;;;;5.40;5.40;26.60;99.90;;;;;;5054672;28;8870;-66
2022/08/27 07:34:32;;;;;;;;;5.60;5.60;26.70;99.90;;;;;;5039030;28;8847;-65
2022/08/27 07:37:05;;;;;;;;;6.50;6.50;26.60;99.90;;;;;;5048994;28;9636;-61
2022/08/27 07:39:36;;;;;;;;;6.00;6.00;26.70;99.90;;;;;;5058618;28;8872;-63
2022/08/27 07:44:55;;;;;;;;;6.00;6.00;26.70;99.90;;;;;;5059636;28;9580;-66
2022/08/27 07:47:25;;;;;;;;;5.40;5.40;26.60;99.90;;;;;;5040432;28;8916;-65
2022/08/27 07:50:00;;;;;;;;;6.00;6.00;26.60;99.90;;;;;;5052955;28;9051;-62
2022/08/27 07:52:33;;;;;;;;;6.50;6.50;26.50;99.90;;;;;;5049348;28;8886;-62
2022/08/27 07:55:04;;;;;;;;;5.00;5.00;26.60;99.90;;;;;;5060925;28;9778;-62
2022/08/27 07:57:35;;;;;;;;;4.00;4.00;26.60;99.90;;;;;;5056337;28;8883;-61
2022/08/27 08:00:10;;;;;;;;;4.00;4.00;26.50;99.90;;;;;;5051132;28;9725;-66
2022/08/27 08:02:41;;;;;;;;;7.00;5.60;26.60;99.90;;;;;;5063645;28;8873;-65
2022/08/27 08:05:13;;;;;;;;;7.20;7.20;26.60;99.90;;;;;;5061419;28;8913;-62
2022/08/27 08:07:43;;;;;;;;;6.00;6.00;26.40;99.90;;;;;;5052724;28;8874;-61
2022/08/27 08:10:13;;;;;;;;;6.00;6.00;26.40;99.90;;;;;;5056469;28;8808;-66
2022/08/27 08:12:43;;;;;;;;;5.00;5.00;26.50;99.90;;;;;;5060666;28;9253;-66
2022/08/27 08:15:19;;;;;;;;;4.40;4.40;26.50;99.90;;;;;;5060038;28;8836;-62
2022/08/27 08:17:50;;;;;;;;;3.00;3.00;26.50;99.90;;;;;;5040849;28;8867;-61
2022/08/27 08:20:21;;;;;;;;;5.25;5.25;26.50;99.90;;;;;;5048636;28;9604;-63
2022/08/27 08:23:12;;;;;;;;;3.50;3.50;26.60;99.90;;;;;;5048829;28;8831;-61
2022/08/27 08:25:43;;;;;;;;;4.25;4.25;26.60;99.90;;;;;;5081340;27;8868;-62
2022/08/27 08:28:16;;;;;;;;;6.25;6.25;26.50;99.90;;;;;;5048261;28;8843;-62
2022/08/27 08:30:48;;;;;;;;;5.25;5.25;26.50;99.90;;;;;;5058706;28;8847;-66
2022/08/27 08:33:19;;;;;;;;;5.75;5.75;26.50;99.90;;;;;;5053012;28;8840;-65
2022/08/27 08:35:50;;;;;;;;;6.25;6.25;26.50;99.90;;;;;;5055502;28;8833;-63
2022/08/27 08:38:21;;;;;;;;;5.00;5.00;26.50;99.90;;;;;;5058532;28;8864;-62
2022/08/27 08:40:55;;;;;;;;;3.00;3.00;26.50;99.90;;;;;;5036520;28;8936;-65
2022/08/27 08:43:36;;;;;;;;;4.00;4.00;26.50;99.90;;;;;;5071569;28;8879;-66
2022/08/27 08:46:24;;;;;;;;;6.80;6.80;26.60;99.90;;;;;;5048924;28;8849;-66
2022/08/27 08:49:00;;;;;;;;;5.40;5.40;26.40;99.90;;;;;;5057824;28;8846;-65
2022/08/27 08:51:41;;;;;;;;;7.40;7.40;26.50;99.90;;;;;;5052635;28;8843;-63
2022/08/27 08:54:18;;;;;;;;;2.00;2.00;26.40;99.90;;;;;;5049168;28;8838;-62
2022/08/27 08:57:20;;;;;;;;;6.00;6.00;26.50;99.90;;;;;;5051084;28;9029;-62
2022/08/27 09:00:02;;;;;;;;;5.00;5.00;26.40;99.90;;;;;;5050527;28;8885;-65
2022/08/27 09:02:34;;;;;;;;;5.60;5.60;26.40;99.90;;;;;;5058093;28;8850;-65
2022/08/27 09:05:07;;;;;;;;;5.40;5.40;26.40;99.90;;;;;;5055877;28;8867;-62
2022/08/27 09:07:50;;;;;;;;;6.00;6.00;26.50;99.90;;;;;;5055961;28;8831;-62
2022/08/27 09:11:18;;;;;;;;;6.20;5.20;26.60;99.90;;;;;;5051384;28;8997;-62
2022/08/27 09:13:50;;;;;;;;;5.20;5.20;26.60;99.90;;;;;;5048543;28;9603;-63
2022/08/27 09:16:20;;;;;;;;;5.20;5.20;26.60;99.90;;;;;;5057017;28;8867;-66
2022/08/27 09:18:51;;;;;;;;;6.00;6.00;26.50;99.90;;;;;;5061973;28;8848;-66
2022/08/27 09:21:45;;;;;;;;;4.00;4.00;26.50;99.90;;;;;;5057908;28;8844;-63
2022/08/27 09:24:19;;;;;;;;;6.00;6.00;26.50;99.90;;;;;;5051535;28;8867;-61
2022/08/27 09:26:54;;;;;;;;;5.80;5.80;26.50;99.90;;;;;;5051484;28;8860;-61
2022/08/27 09:29:27;;;;;;;;;4.80;4.80;26.50;99.90;;;;;;5049259;28;8844;-62
2022/08/27 09:32:07;;;;;;;;;6.00;5.60;26.50;99.90;;;;;;5054614;28;8861;-61
2022/08/27 09:34:47;;;;;;;;;5.00;5.00;26.50;99.90;;;;;;5083398;28;8856;-63
2022/08/27 09:37:25;;;;;;;;;4.60;4.60;26.50;99.90;;;;;;5050023;28;10270;-63
2022/08/27 09:40:16;;;;;;;;;7.00;7.00;26.50;99.90;;;;;;5052526;28;8828;-66
2022/08/27 09:42:56;;;;;;;;;6.00;6.00;26.30;99.90;;;;;;5057926;28;9690;-66
2022/08/27 09:45:31;;;;;;;;;6.00;6.00;26.30;99.90;;;;;;5068069;28;8860;-64
2022/08/27 09:48:10;;;;;;;;;6.00;6.00;26.40;99.90;;;;;;5056720;28;8847;-66
2022/08/27 09:50:53;;;;;;;;;5.20;5.20;26.20;99.90;;;;;;5052977;28;8878;-62
2022/08/27 09:53:39;;;;;;;;;6.80;6.80;26.30;99.90;;;;;;5083396;28;8892;-62
2022/08/27 09:56:27;;;;;;;;;5.60;5.60;26.20;99.90;;;;;;5050462;28;8906;-65
2022/08/27 09:59:21;;;;;;;;;5.20;5.20;26.30;99.90;;;;;;5050787;28;8839;-66
2022/08/27 10:01:59;;;;;;;;;6.00;6.00;26.00;99.90;;;;;;5084433;28;8824;-63
2022/08/27 10:04:51;;;;;;;;;5.40;5.40;26.00;99.90;;;;;;5056907;28;8847;-62
2022/08/27 10:07:52;;;;;;;;;5.20;5.20;25.90;99.90;;;;;;5054801;28;8827;-61
2022/08/27 10:10:58;;;;;;;;;6.60;5.00;26.10;99.90;;;;;;5057707;28;9629;-62
2022/08/27 10:13:39;;;;;;;;;5.20;5.20;26.10;99.90;;;;;;5053592;28;8836;-61
2022/08/27 10:16:40;;;;;;;;;4.60;4.60;26.10;99.90;;;;;;5062667;28;8855;-66
2022/08/27 10:19:31;;;;;;;;;7.00;5.60;25.90;99.90;;;;;;5067608;28;9578;-66
2022/08/27 10:22:13;;;;;;;;;5.20;5.20;25.90;99.90;;;;;;5064173;28;8830;-63
2022/08/27 10:24:59;;;;;;;;;5.20;5.20;25.80;99.90;;;;;;5053734;28;8836;-62
2022/08/27 10:27:48;;;;;;;;;4.40;4.40;25.70;99.90;;;;;;5056690;28;8848;-63
2022/08/27 10:30:31;;;;;;;;;5.60;5.60;25.60;99.90;;;;;;5088888;27;8884;-63
2022/08/27 10:33:13;;;;;;;;;5.25;5.25;25.50;99.90;;;;;;5055823;28;8828;-64
2022/08/27 10:36:02;;;;;;;;;6.60;5.60;25.50;99.90;;;;;;5057000;28;8864;-61
2022/08/27 10:39:01;;;;;;;;;5.00;5.00;25.70;99.90;;;;;;5053154;28;8848;-63
2022/08/27 10:41:40;;;;;;;;;5.00;5.00;25.80;99.90;;;;;;5055658;28;8855;-62
2022/08/27 10:44:31;;;;;;;;;6.00;6.00;25.90;99.90;;;;;;5052155;28;8856;-63
2022/08/27 10:47:30;;;;;;;;;5.25;5.25;25.80;99.90;;;;;;5087557;27;8848;-66
2022/08/27 10:50:19;;;;;;;;;5.00;5.00;25.80;99.90;;;;;;5068954;28;8865;-65
2022/08/27 10:53:04;;;;;;;;;5.00;5.00;25.80;99.90;;;;;;5059440;28;8908;-65
2022/08/27 10:55:40;;;;;;;;;5.50;5.50;25.80;99.90;;;;;;5055670;28;8841;-61
2022/08/27 10:58:38;;;;;;;;;5.00;5.00;25.70;99.90;;;;;;5056534;28;8868;-62
2022/08/27 11:01:30;;;;;;;;;5.00;5.00;25.70;99.90;;;;;;5053088;28;8886;-66
2022/08/27 11:04:27;;;;;;;;;4.75;4.75;25.80;99.90;;;;;;5054376;28;8876;-66
2022/08/27 11:07:06;;;;;;;;;5.00;5.00;25.50;99.90;;;;;;5056318;28;8880;-63
2022/08/27 11:09:55;;;;;;;;;6.00;6.00;25.40;99.90;;;;;;5056769;28;8851;-62
2022/08/27 11:12:35;;;;;;;;;3.00;3.00;25.40;99.90;;;;;;5059504;28;9613;-65
2022/08/27 11:15:22;;;;;;;;;4.25;4.25;25.50;99.90;;;;;;5055933;28;9003;-63
2022/08/27 11:18:01;;;;;;;;;6.00;6.00;25.50;99.90;;;;;;5038708;28;8851;-64
2022/08/27 11:21:06;;;;;;;;;5.00;5.00;25.60;99.90;;;;;;5052673;28;8843;-66
2022/08/27 11:23:52;;;;;;;;;6.00;6.00;25.40;99.90;;;;;;5047336;28;9002;-65
2022/08/27 11:26:22;;;;;;;;;5.00;5.00;25.40;99.90;;;;;;5058745;28;9605;-61
2022/08/27 11:29:06;;;;;;;;;5.25;5.25;25.30;99.90;;;;;;5056994;28;9942;-64
2022/08/27 11:31:53;;;;;;;;;3.75;3.75;25.40;99.90;;;;;;5068227;28;9024;-63
2022/08/27 11:34:42;;;;;;;;;5.00;5.00;25.30;99.90;;;;;;5060588;28;8860;-62
2022/08/27 11:37:40;;;;;;;;;4.00;4.00;25.50;99.90;;;;;;5064264;28;8824;-63
2022/08/27 11:40:57;;;;;;;;;4.00;4.00;25.50;99.90;;;;;;5058501;28;8879;-62
2022/08/27 11:43:31;;;;;;;;;5.75;5.75;25.50;99.90;;;;;;5063993;28;8867;-68
2022/08/27 11:46:07;;;;;;;;;6.00;5.50;25.40;99.90;;;;;;5062039;28;8870;-66
2022/08/27 11:48:53;;;;;;;;;6.00;6.00;25.40;99.90;;;;;;5055802;28;9578;-64
2022/08/27 11:51:40;;;;;;;;;6.75;6.75;25.50;99.90;;;;;;5050334;28;8807;-63
2022/08/27 11:54:26;;;;;;;;;5.25;5.25;25.30;99.90;;;;;;5053778;28;8847;-62
2022/08/27 11:56:58;;;;;;;;;6.50;6.50;25.10;99.90;;;;;;5048907;28;9594;-66
2022/08/27 11:59:32;;;;;;;;;5.50;5.50;25.10;99.90;;;;;;5052246;28;8843;-65
2022/08/27 12:02:28;;;;;;;;;6.50;6.50;25.10;99.90;;;;;;5048763;28;8855;-66
2022/08/27 12:05:22;;;;;;;;;6.50;6.50;25.30;99.90;;;;;;5037240;28;8851;-62
2022/08/27 12:07:58;;;;;;;;;6.00;6.00;25.40;99.90;;;;;;5054661;28;8853;-62
2022/08/27 12:10:41;;;;;;;;;3.75;3.25;25.10;99.90;;;;;;5048619;28;8836;-63
2022/08/27 12:13:37;;;;;;;;;7.50;7.50;25.20;99.90;;;;;;5055363;28;8834;-63
2022/08/27 12:16:24;;;;;;;;;7.00;7.00;25.30;99.90;;;;;;5053874;28;8834;-65
2022/08/27 12:19:17;;;;;;;;;7.00;7.00;25.30;99.90;;;;;;5053169;28;8934;-66
2022/08/27 12:22:15;;;;;;;;;6.75;6.75;25.10;99.90;;;;;;5057132;28;8831;-62
2022/08/27 12:24:52;;;;;;;;;6.75;6.75;25.40;99.90;;;;;;5053901;28;8992;-62
2022/08/27 12:27:34;;;;;;;;;6.25;6.25;25.40;99.90;;;;;;5056666;28;8855;-60
2022/08/27 12:30:26;;;;;;;;;8.25;8.25;25.50;99.90;;;;;;5051364;28;8839;-65
2022/08/27 12:33:09;;;;;;;;;7.50;7.50;25.50;99.90;;;;;;5050703;28;9529;-65
2022/08/27 12:35:51;;;;;;;;;6.00;6.00;25.50;99.90;;;;;;5057289;28;8828;-66
2022/08/27 12:38:52;;;;;;;;;6.75;6.75;25.60;99.90;;;;;;5051285;28;8838;-65
2022/08/27 12:41:38;;;;;;;;;6.50;6.50;25.60;99.90;;;;;;5090363;27;8856;-66
2022/08/27 12:44:15;;;;;;;;;6.25;6.25;25.60;99.90;;;;;;5061311;28;8879;-66
2022/08/27 12:46:48;;;;;;;;;5.25;5.25;25.60;99.90;;;;;;5050693;28;8863;-62
2022/08/27 12:49:26;;;;;;;;;5.25;5.25;25.60;99.90;;;;;;5046770;28;8863;-63
2022/08/27 12:52:29;;;;;;;;;6.50;6.00;25.70;99.90;;;;;;5071596;28;8866;-62
2022/08/27 12:55:17;;;;;;;;;5.50;5.50;25.80;99.90;;;;;;5051848;28;8868;-66
2022/08/27 12:58:19;;;;;;;;;6.50;6.50;25.80;99.90;;;;;;5070507;28;8852;-66
2022/08/27 13:00:57;;;;;;;;;6.25;6.25;25.80;99.90;;;;;;5068005;28;8844;-62
2022/08/27 13:03:40;;;;;;;;;6.00;6.00;25.80;99.90;;;;;;5058050;28;8863;-64
2022/08/27 13:06:21;;;;;;;;;7.00;7.00;25.90;99.90;;;;;;5052146;28;8843;-63
2022/08/27 13:08:58;;;;;;;;;5.25;5.25;25.90;99.90;;;;;;5062368;28;8832;-61
2022/08/27 13:11:55;;;;;;;;;6.00;6.00;25.90;99.90;;;;;;5056668;28;8839;-62
2022/08/27 13:14:34;;;;;;;;;5.75;5.75;26.00;99.90;;;;;;5053972;28;8865;-62
2022/08/27 13:17:15;;;;;;;;;6.25;6.25;26.00;99.90;;;;;;5052075;28;8845;-66
2022/08/27 13:19:58;;;;;;;;;8.00;8.00;26.00;99.90;;;;;;5051780;28;8841;-67
2022/08/27 13:22:39;;;;;;;;;7.00;6.00;26.10;99.90;;;;;;5049780;28;8856;-63
2022/08/27 13:25:28;;;;;;;;;5.50;5.50;26.10;99.90;;;;;;5052091;28;9687;-62
2022/08/27 13:28:10;;;;;;;;;6.75;6.75;26.10;99.90;;;;;;5052989;28;8824;-63
2022/08/27 13:30:45;;;;;;;;;6.50;6.50;26.10;99.90;;;;;;5052921;28;8864;-62
2022/08/27 13:33:26;;;;;;;;;6.00;6.00;26.20;99.90;;;;;;5052695;28;8874;-62
2022/08/27 13:35:59;;;;;;;;;6.00;6.00;26.20;99.90;;;;;;5048842;28;8855;-62
2022/08/27 13:38:35;;;;;;;;;2.50;2.00;26.30;99.90;;;;;;5052464;28;8852;-62
2022/08/27 13:41:19;;;;;;;;;7.50;6.00;26.30;99.90;;;;;;5053222;28;8887;-62
2022/08/27 13:43:51;;;;;;;;;6.00;6.00;26.40;99.90;;;;;;5046895;28;9637;-62
2022/08/27 13:46:30;;;;;;;;;6.25;6.25;26.40;99.90;;;;;;5062707;28;8862;-61
2022/08/27 13:49:07;;;;;;;;;6.25;6.25;26.40;99.90;;;;;;5073840;28;8882;-63
2022/08/27 13:51:44;;;;;;;;;4.75;4.75;26.40;99.90;;;;;;5047862;28;9185;-66
2022/08/27 13:54:18;;;;;;;;;4.60;4.60;26.40;99.90;;;;;;5052839;28;8865;-67
2022/08/27 13:56:53;;;;;;;;;5.00;5.00;26.40;99.90;;;;;;5082432;28;8867;-66
2022/08/27 13:59:29;;;;;;;;;6.80;5.20;26.50;99.90;;;;;;5050510;28;10109;-66
2022/08/27 14:02:14;;;;;;;;;5.00;5.00;26.60;99.90;;;;;;5072750;28;8885;-65